Time;durP1;ratioP1;P1;durP2;ratioP2;P2;SDS_P1;SDS_P2;PMS_P1;PMS_P2;Temp;Humidity;BMP_temperature;BMP_pressure;BME280_temperature;BME280_humidity;BME280_pressure;Samples;Min_cycle;Max_cycle;Signal;HPM_P1;HPM_P2
2023/02/25 00:02:39;;;;;;;42.20;25.50;;;;;;;5.75;86.83;96685.46;220809;1282;25362;-76
2023/02/25 00:07:44;;;;;;;39.20;24.90;;;;;;;5.67;87.37;96674.60;220902;1278;24247;-76
2023/02/25 00:12:52;;;;;;;34.00;22.20;;;;;;;5.62;87.02;96668.19;220920;1282;22642;-76
2023/02/25 00:17:55;;;;;;;32.60;21.90;;;;;;;5.57;86.95;96654.06;221144;1275;22540;-76
2023/02/25 00:23:17;;;;;;;31.80;20.70;;;;;;;5.54;87.18;96647.95;221098;1281;22530;-77
2023/02/25 00:28:34;;;;;;;30.70;20.20;;;;;;;5.52;87.01;96639.77;221285;1281;22557;-79
2023/02/25 00:33:42;;;;;;;29.80;19.70;;;;;;;5.49;87.07;96627.39;221120;1275;22692;-77
2023/02/25 00:38:47;;;;;;;29.90;19.60;;;;;;;5.45;86.98;96621.17;220923;1276;22545;-76
2023/02/25 00:43:55;;;;;;;30.20;20.70;;;;;;;5.42;87.04;96621.63;221015;1276;25446;-77
2023/02/25 00:48:59;;;;;;;31.80;19.90;;;;;;;5.33;86.79;96622.11;220782;1282;26264;-76
2023/02/25 00:54:02;;;;;;;34.00;21.10;;;;;;;5.25;86.91;96626.27;220592;1282;22624;-76
2023/02/25 00:59:07;;;;;;;28.90;19.10;;;;;;;5.17;86.88;96623.02;220900;1282;22606;-76
2023/02/25 01:04:09;;;;;;;27.10;17.60;;;;;;;5.12;86.74;96610.95;220927;1278;22541;-76
2023/02/25 01:09:15;;;;;;;28.60;17.00;;;;;;;5.06;86.77;96610.40;221070;1276;22534;-77
2023/02/25 01:14:20;;;;;;;30.70;19.20;;;;;;;5.02;86.68;96596.45;221050;1281;22569;-76
2023/02/25 01:19:26;;;;;;;30.40;20.40;;;;;;;4.98;86.49;96592.64;220896;1279;22523;-76
2023/02/25 01:24:36;;;;;;;32.20;20.30;;;;;;;4.92;86.55;96586.89;220964;1278;25093;-77
2023/02/25 01:29:40;;;;;;;30.50;20.00;;;;;;;4.90;86.84;96582.20;220788;1281;22537;-75
2023/02/25 01:34:43;;;;;;;27.60;18.10;;;;;;;4.89;86.90;96578.10;221095;1280;22551;-77
2023/02/25 01:39:45;;;;;;;30.30;19.00;;;;;;;4.87;86.91;96586.29;221016;1280;22662;-76
2023/02/25 01:45:37;;;;;;;30.70;20.00;;;;;;;4.85;86.91;96590.07;221100;1279;24273;-75
2023/02/25 01:50:58;;;;;;;31.00;19.10;;;;;;;4.79;86.85;96609.79;221040;1281;23210;-76
2023/02/25 01:56:02;;;;;;;30.00;20.00;;;;;;;4.78;86.80;96597.59;220847;1281;24364;-77
2023/02/25 02:01:13;;;;;;;29.20;19.10;;;;;;;4.79;86.91;96585.52;220915;1283;22537;-76
2023/02/25 02:06:21;;;;;;;24.70;17.80;;;;;;;4.79;86.86;96582.23;221115;1279;22529;-76
2023/02/25 02:11:24;;;;;;;26.30;17.10;;;;;;;4.75;86.65;96582.27;220954;1278;22533;-75
2023/02/25 02:16:45;;;;;;;23.80;15.70;;;;;;;4.73;86.64;96576.17;220657;1282;24239;-76
2023/02/25 02:21:59;;;;;;;19.30;12.50;;;;;;;4.69;86.43;96587.38;220788;1278;22654;-76
2023/02/25 02:27:18;;;;;;;13.40;9.60;;;;;;;4.67;85.94;96577.71;220838;1282;22537;-76
2023/02/25 02:32:47;;;;;;;14.10;9.60;;;;;;;4.65;85.78;96572.85;221045;1276;22539;-76
2023/02/25 02:38:13;;;;;;;11.80;8.90;;;;;;;4.61;85.25;96563.56;220888;1275;24297;-76
2023/02/25 02:43:44;;;;;;;14.90;9.30;;;;;;;4.55;85.32;96570.10;220893;1280;22539;-76
2023/02/25 02:49:11;;;;;;;15.40;9.90;;;;;;;4.50;85.20;96579.87;220635;1278;22552;-76
2023/02/25 02:54:17;;;;;;;15.00;9.90;;;;;;;4.45;85.19;96589.06;220967;1281;24391;-76
2023/02/25 02:59:27;;;;;;;16.20;10.20;;;;;;;4.40;85.34;96607.56;221180;1281;22593;-76
2023/02/25 03:04:36;;;;;;;16.70;11.10;;;;;;;4.35;85.32;96614.11;221048;1281;24327;-76
2023/02/25 03:09:53;;;;;;;17.80;10.90;;;;;;;4.27;85.42;96627.20;221025;1275;24410;-77
2023/02/25 03:15:13;;;;;;;16.80;11.30;;;;;;;4.16;85.61;96633.70;221139;1281;24389;-77
2023/02/25 03:20:29;;;;;;;20.10;12.50;;;;;;;4.06;85.99;96636.15;221097;1278;22533;-78
2023/02/25 03:25:37;;;;;;;19.80;14.40;;;;;;;3.93;86.05;96635.50;220928;1283;25432;-76
2023/02/25 03:30:47;;;;;;;21.40;14.30;;;;;;;3.79;86.28;96645.15;221063;1279;23188;-80
2023/02/25 03:35:58;;;;;;;18.10;13.60;;;;;;;3.66;86.43;96654.33;221047;1278;22546;-77
2023/02/25 03:41:12;;;;;;;17.90;13.10;;;;;;;3.54;86.72;96656.02;221007;1281;25605;-77
2023/02/25 03:46:18;;;;;;;20.20;13.50;;;;;;;3.43;86.88;96667.89;221108;1275;22574;-78
2023/02/25 03:51:30;;;;;;;19.30;14.00;;;;;;;3.36;87.18;96661.66;221078;1282;24394;-77
2023/02/25 03:56:43;;;;;;;19.80;13.90;;;;;;;3.32;87.33;96656.13;221151;1279;22546;-78
2023/02/25 04:01:54;;;;;;;19.20;13.50;;;;;;;3.28;87.48;96653.85;220870;1275;25423;-77
2023/02/25 04:07:08;;;;;;;17.30;11.40;;;;;;;3.23;87.46;96650.67;221073;1281;22571;-77
2023/02/25 04:12:11;;;;;;;14.90;10.40;;;;;;;3.17;87.56;96646.88;220974;1278;23325;-77
2023/02/25 04:17:15;;;;;;;14.00;9.40;;;;;;;3.10;87.24;96639.66;220983;1282;25853;-77
2023/02/25 04:22:22;;;;;;;13.40;9.70;;;;;;;3.00;87.21;96635.48;221014;1281;25295;-78
2023/02/25 04:27:26;;;;;;;13.40;10.10;;;;;;;2.90;87.26;96634.73;220911;1281;24299;-76
2023/02/25 04:32:37;;;;;;;14.40;10.10;;;;;;;2.78;87.20;96634.27;221151;1280;22563;-78
2023/02/25 04:37:41;;;;;;;14.00;10.00;;;;;;;2.64;87.13;96631.30;221317;1278;25446;-78
2023/02/25 04:42:44;;;;;;;13.60;9.40;;;;;;;2.51;87.15;96624.64;221320;1281;22585;-77
2023/02/25 04:47:49;;;;;;;16.90;10.30;;;;;;;2.38;87.18;96631.92;221266;1281;25310;-78
2023/02/25 04:52:53;;;;;;;15.30;10.20;;;;;;;2.25;87.61;96641.21;221536;1275;22535;-77
2023/02/25 04:57:55;;;;;;;13.00;9.60;;;;;;;2.12;87.63;96643.14;221349;1280;22551;-78
2023/02/25 05:02:57;;;;;;;11.50;8.40;;;;;;;2.01;87.58;96646.09;221348;1281;23935;-77
2023/02/25 05:08:27;;;;;;;15.10;9.80;;;;;;;1.90;87.69;96645.00;221518;1280;24314;-78
2023/02/25 05:13:30;;;;;;;14.50;9.80;;;;;;;1.79;87.58;96643.77;221362;1282;23327;-77
2023/02/25 05:18:50;;;;;;;16.30;11.10;;;;;;;1.73;87.96;96642.20;221372;1281;25411;-78
2023/02/25 05:23:53;;;;;;;15.30;10.00;;;;;;;1.74;88.28;96653.34;220968;1281;22549;-77
2023/02/25 05:28:57;;;;;;;13.60;8.80;;;;;;;1.79;88.46;96660.98;220996;1283;24219;-78
2023/02/25 05:34:01;;;;;;;14.80;9.20;;;;;;;1.86;88.75;96657.52;220942;1283;24373;-77
2023/02/25 05:39:05;;;;;;;12.50;8.40;;;;;;;1.93;88.82;96655.20;220947;1281;25298;-78
2023/02/25 05:44:10;;;;;;;13.20;8.70;;;;;;;2.01;88.73;96656.03;221251;1281;22650;-77
2023/02/25 05:49:13;;;;;;;10.70;7.90;;;;;;;2.07;88.93;96661.73;221413;1275;24518;-77
2023/02/25 05:54:17;;;;;;;10.80;8.70;;;;;;;2.12;88.90;96662.29;221124;1281;23152;-78
2023/02/25 05:59:20;;;;;;;14.00;9.20;;;;;;;2.18;88.96;96662.44;221149;1276;22546;-77
2023/02/25 06:04:22;;;;;;;13.50;8.50;;;;;;;2.26;89.07;96668.15;221013;1278;22538;-77
2023/02/25 06:09:26;;;;;;;13.10;8.60;;;;;;;2.35;88.77;96667.70;220892;1279;22655;-77
2023/02/25 06:14:31;;;;;;;11.10;8.50;;;;;;;2.43;88.92;96672.73;220852;1282;22550;-77
2023/02/25 06:19:34;;;;;;;13.00;8.80;;;;;;;2.47;88.85;96672.66;220988;1281;22570;-77
2023/02/25 06:24:39;;;;;;;12.00;8.90;;;;;;;2.51;88.67;96681.10;221146;1281;22542;-77
2023/02/25 06:29:48;;;;;;;13.80;9.70;;;;;;;2.58;88.88;96682.35;221166;1278;22892;-77
2023/02/25 06:35:06;;;;;;;13.90;10.30;;;;;;;2.70;89.07;96686.04;221081;1281;23392;-78
2023/02/25 06:40:13;;;;;;;13.20;10.00;;;;;;;2.82;88.93;96684.05;221107;1260;22600;-77
2023/02/25 06:45:15;;;;;;;16.50;11.30;;;;;;;2.88;88.70;96688.61;221113;1276;22540;-77
2023/02/25 06:50:21;;;;;;;14.80;11.20;;;;;;;2.93;88.67;96710.76;221192;1281;22540;-77
2023/02/25 06:55:25;;;;;;;14.20;9.70;;;;;;;2.91;88.22;96716.28;221133;1260;22675;-78
2023/02/25 07:00:30;;;;;;;8.70;6.70;;;;;;;2.80;87.67;96708.22;221161;1276;23925;-78
2023/02/25 07:05:36;;;;;;;8.30;6.40;;;;;;;2.71;87.37;96712.48;221030;1282;26532;-78
2023/02/25 07:10:40;;;;;;;7.10;5.30;;;;;;;2.66;87.32;96725.28;220976;1283;25389;-77
2023/02/25 07:15:43;;;;;;;6.10;4.60;;;;;;;2.47;86.82;96713.42;221103;1283;22485;-78
2023/02/25 07:20:47;;;;;;;6.30;4.30;;;;;;;2.18;86.22;96686.68;221074;1281;22577;-78
2023/02/25 07:25:50;;;;;;;7.10;4.70;;;;;;;2.08;87.04;96688.50;221359;1278;25369;-76
2023/02/25 07:30:53;;;;;;;8.30;6.60;;;;;;;2.16;87.49;96696.91;221193;1281;25501;-77
2023/02/25 07:35:56;;;;;;;10.20;7.40;;;;;;;2.33;88.02;96699.86;221223;1281;25017;-77
2023/02/25 07:41:10;;;;;;;9.90;7.10;;;;;;;2.55;88.30;96706.34;221167;1281;22559;-76
2023/02/25 07:46:13;;;;;;;11.50;8.40;;;;;;;2.79;88.37;96708.92;221165;1272;23796;-77
2023/02/25 07:51:18;;;;;;;11.10;8.00;;;;;;;3.01;88.25;96706.95;221012;1281;23812;-77
2023/02/25 07:56:23;;;;;;;9.30;6.70;;;;;;;3.21;88.24;96703.25;221255;1275;23405;-77
2023/02/25 08:01:32;;;;;;;5.80;5.20;;;;;;;3.42;88.21;96703.59;221641;1262;25249;-77
2023/02/25 08:06:37;;;;;;;5.50;4.80;;;;;;;3.58;88.01;96695.30;221657;1272;24221;-76
2023/02/25 08:11:40;;;;;;;5.90;4.40;;;;;;;3.70;87.80;96694.58;221828;1275;22565;-78
2023/02/25 08:16:43;;;;;;;5.40;3.90;;;;;;;3.80;87.36;96697.67;221743;1262;25414;-81
2023/02/25 08:21:46;;;;;;;6.20;4.60;;;;;;;3.91;86.91;96706.83;221678;1276;23267;-82
2023/02/25 08:26:49;;;;;;;6.30;4.50;;;;;;;4.07;86.83;96700.27;221525;1275;25249;-81
2023/02/25 08:31:56;;;;;;;3.90;2.90;;;;;;;4.21;86.60;96703.42;221970;1276;22572;-81
2023/02/25 08:37:03;;;;;;;4.20;3.10;;;;;;;4.43;86.64;96703.92;221522;1275;22586;-80
2023/02/25 08:42:06;;;;;;;3.10;2.00;;;;;;;4.56;85.94;96697.66;221754;1278;22555;-80
2023/02/25 08:47:08;;;;;;;4.30;1.80;;;;;;;4.60;85.33;96691.74;221772;1275;22620;-79
2023/02/25 08:52:12;;;;;;;2.00;1.50;;;;;;;4.75;85.26;96699.95;221562;1275;24263;-80
2023/02/25 08:57:16;;;;;;;2.60;2.00;;;;;;;4.87;84.62;96697.94;221568;1279;22649;-80
2023/02/25 09:02:20;;;;;;;3.30;1.70;;;;;;;4.82;83.53;96699.54;221853;1281;22630;-80
2023/02/25 09:07:23;;;;;;;2.50;1.50;;;;;;;4.75;83.39;96706.63;221809;1260;22611;-79
2023/02/25 09:12:31;;;;;;;3.00;1.70;;;;;;;4.72;82.74;96695.68;222001;1269;22891;-82
2023/02/25 09:17:35;;;;;;;2.60;1.40;;;;;;;4.60;81.88;96694.12;221794;1275;25561;-80
2023/02/25 09:22:41;;;;;;;2.20;1.40;;;;;;;4.50;81.79;96697.30;221558;1275;22536;-80
2023/02/25 09:27:44;;;;;;;3.30;1.30;;;;;;;4.48;81.50;96691.94;221998;1281;22556;-80
2023/02/25 09:32:46;;;;;;;3.30;1.50;;;;;;;4.45;81.58;96694.52;221793;1281;22971;-80
2023/02/25 09:37:49;;;;;;;2.60;1.40;;;;;;;4.42;81.54;96697.11;221766;1279;25737;-81
2023/02/25 09:43:36;;;;;;;2.30;1.80;;;;;;;4.36;81.58;96712.81;221527;1271;25968;-81
2023/02/25 09:49:02;;;;;;;2.90;1.60;;;;;;;4.24;81.69;96730.05;221668;1275;24126;-81
2023/02/25 09:54:41;;;;;;;7.50;4.30;;;;;;;4.11;81.72;96737.30;221679;1278;22655;-80
2023/02/25 09:59:45;;;;;;;4.10;2.70;;;;;;;3.91;81.44;96736.44;221436;1278;22706;-81
2023/02/25 10:05:32;;;;;;;3.10;1.80;;;;;;;3.81;81.48;96730.23;221441;1282;23031;-79
2023/02/25 10:10:55;;;;;;;3.50;2.00;;;;;;;4.01;81.98;96731.69;221511;1266;24265;-79
2023/02/25 10:16:25;;;;;;;3.60;1.50;;;;;;;4.25;82.06;96735.52;221498;1277;24006;-79
2023/02/25 10:21:52;;;;;;;2.10;1.60;;;;;;;4.35;81.77;96736.09;221651;1262;22540;-80
2023/02/25 10:27:02;;;;;;;2.70;1.80;;;;;;;4.49;81.72;96741.30;221532;1267;25416;-80
2023/02/25 10:32:20;;;;;;;3.40;1.80;;;;;;;4.63;82.01;96731.21;221965;1260;22657;-81
2023/02/25 10:37:34;;;;;;;3.00;2.00;;;;;;;4.71;82.31;96739.95;221256;1275;26023;-82
2023/02/25 10:42:37;;;;;;;3.50;2.20;;;;;;;4.73;82.21;96744.19;221429;1272;22541;-82
2023/02/25 10:47:45;;;;;;;4.10;2.50;;;;;;;4.82;82.12;96750.13;221947;1265;25249;-82
2023/02/25 10:53:15;;;;;;;3.90;2.10;;;;;;;5.03;81.82;96748.59;221726;1270;23217;-81
2023/02/25 10:58:45;;;;;;;1.50;1.30;;;;;;;5.33;81.23;96748.14;221744;1281;25320;-82
2023/02/25 11:03:47;;;;;;;;;;;;;;;5.58;80.72;96743.23;221473;1278;22535;-81
2023/02/25 11:08:53;;;;;;;1.80;1.30;;;;;;;5.66;79.52;96742.15;221621;1280;23671;-83
2023/02/25 11:14:08;;;;;;;2.10;1.60;;;;;;;5.37;77.63;96760.98;221944;1274;210753;-82
2023/02/25 11:19:26;;;;;;;2.50;2.20;;;;;;;4.95;78.53;96753.25;221524;1279;23805;-80
2023/02/25 11:24:32;;;;;;;2.00;1.90;;;;;;;4.80;79.15;96750.84;221599;1281;25294;-82
2023/02/25 11:29:42;;;;;;;3.10;2.30;;;;;;;4.82;79.79;96753.51;222109;1281;22582;-82
2023/02/25 11:35:06;;;;;;;4.00;2.60;;;;;;;4.98;79.95;96751.64;221744;1262;25306;-82
2023/02/25 11:40:22;;;;;;;2.60;1.80;;;;;;;5.12;78.90;96754.58;221649;1266;24062;-82
2023/02/25 11:45:28;;;;;;;1.10;0.80;;;;;;;5.13;78.06;96763.27;221724;1267;23077;-81
2023/02/25 11:50:44;;;;;;;0.50;0.50;;;;;;;4.83;77.26;96776.41;222715;1271;24334;-81
2023/02/25 11:55:55;;;;;;;0.60;0.60;;;;;;;4.61;78.28;96770.20;221549;1263;22537;-80
2023/02/25 12:01:15;;;;;;;0.90;0.80;;;;;;;4.62;78.67;96766.53;221436;1275;22536;-78
2023/02/25 12:06:46;;;;;;;1.40;0.80;;;;;;;4.63;78.30;96766.08;220994;1277;22550;-80
2023/02/25 12:12:27;;;;;;;1.40;1.10;;;;;;;4.70;78.78;96773.35;220884;1278;22640;-78
2023/02/25 12:18:37;;;;;;;1.10;1.00;;;;;;;4.86;78.95;96770.86;220840;1274;23794;-80
2023/02/25 12:23:54;;;;;;;1.50;1.30;;;;;;;5.06;79.25;96773.38;220847;1282;23771;-80
2023/02/25 12:29:52;;;;;;;1.20;1.10;;;;;;;5.13;78.69;96773.42;220877;1283;24298;-81
2023/02/25 12:35:34;;;;;;;1.90;1.10;;;;;;;5.02;77.61;96783.73;220667;1283;22576;-80
2023/02/25 12:41:21;;;;;;;1.50;1.20;;;;;;;4.78;77.31;96790.45;220798;1282;22546;-79
2023/02/25 12:46:46;;;;;;;0.50;0.50;;;;;;;4.62;77.98;96835.77;220771;1283;22854;-78
2023/02/25 12:52:40;;;;;;;1.60;0.90;;;;;;;3.87;77.73;96854.96;220926;1283;22575;-80
2023/02/25 12:58:08;;;;;;;1.60;1.40;;;;;;;3.02;79.42;96844.98;220812;1276;23651;-80
2023/02/25 13:04:16;;;;;;;1.60;1.30;;;;;;;2.60;80.89;96847.54;220871;1274;22674;-79
2023/02/25 13:10:24;;;;;;;2.70;2.00;;;;;;;2.48;81.64;96852.08;219860;1288;24240;-79
2023/02/25 13:15:39;;;;;;;2.40;2.10;;;;;;;2.50;81.59;96847.33;219676;1284;22612;-80
2023/02/25 13:21:00;;;;;;;3.90;2.30;;;;;;;2.66;82.33;96849.21;220649;1282;25388;-79
2023/02/25 13:26:26;;;;;;;4.20;3.20;;;;;;;2.89;82.58;96859.65;220930;1283;22586;-80
2023/02/25 13:31:50;;;;;;;1.80;1.40;;;;;;;3.10;82.84;96882.43;220866;1283;23633;-79
2023/02/25 13:37:11;;;;;;;1.20;1.10;;;;;;;3.09;82.12;96871.31;220771;1280;23218;-80
2023/02/25 13:42:26;;;;;;;1.20;1.00;;;;;;;3.01;82.29;96880.77;220919;1283;22608;-80
2023/02/25 13:48:10;;;;;;;1.00;0.80;;;;;;;2.98;82.44;96886.52;221006;1283;25361;-80
2023/02/25 13:53:47;;;;;;;1.30;1.00;;;;;;;2.98;82.72;96889.22;220993;1280;23697;-80
2023/02/25 13:59:19;;;;;;;1.20;0.90;;;;;;;3.05;82.93;96889.33;220846;1283;23802;-80
2023/02/25 14:05:13;;;;;;;1.30;1.00;;;;;;;3.10;82.70;96897.86;220978;1277;22546;-81
2023/02/25 14:10:48;;;;;;;1.30;0.90;;;;;;;3.12;82.65;96913.79;220123;1286;22548;-80
2023/02/25 14:16:06;;;;;;;1.60;1.10;;;;;;;3.15;82.64;96917.42;220954;1283;25374;-80
2023/02/25 14:21:52;;;;;;;2.70;1.70;;;;;;;3.23;82.79;96922.85;220976;1280;24274;-79
2023/02/25 14:27:25;;;;;;;2.40;1.80;;;;;;;3.37;83.13;96930.03;221002;1280;23304;-79
2023/02/25 14:32:51;;;;;;;2.50;1.90;;;;;;;3.53;83.08;96935.98;220638;1283;22544;-79
2023/02/25 14:37:54;;;;;;;2.80;2.00;;;;;;;3.67;82.51;96934.17;220963;1277;25280;-79
2023/02/25 14:43:20;;;;;;;3.00;2.10;;;;;;;3.73;82.10;96942.80;220934;1280;23130;-79
2023/02/25 14:48:40;;;;;;;3.30;2.20;;;;;;;3.63;81.83;96957.40;220907;1276;24226;-80
2023/02/25 14:54:18;;;;;;;;;;;;;;;3.40;82.03;96967.64;220896;1279;24181;-81
2023/02/25 14:59:54;;;;;;;2.40;2.10;;;;;;;3.08;82.33;96969.82;220610;1282;25420;-79
2023/02/25 15:05:41;;;;;;;2.80;2.00;;;;;;;2.91;82.80;96978.68;221054;1277;22573;-81
2023/02/25 15:10:49;;;;;;;2.00;1.60;;;;;;;2.80;83.34;96983.81;221011;1283;24195;-80
2023/02/25 15:16:18;;;;;;;2.40;1.80;;;;;;;2.70;83.48;96983.69;220949;1280;24301;-81
2023/02/25 15:21:40;;;;;;;2.80;2.00;;;;;;;2.61;83.38;96996.54;220922;1283;22520;-79
2023/02/25 15:26:47;;;;;;;3.80;2.90;;;;;;;2.49;83.77;97015.67;220725;1282;22630;-79
2023/02/25 15:32:20;;;;;;;3.70;2.30;;;;;;;2.35;83.97;97009.23;221010;1283;22817;-80
2023/02/25 15:37:32;;;;;;;3.80;2.40;;;;;;;2.23;84.39;97014.08;221015;1280;22676;-81
2023/02/25 15:42:45;;;;;;;4.90;3.60;;;;;;;2.13;84.57;97018.27;220951;1280;22672;-80
2023/02/25 15:47:49;;;;;;;3.20;2.70;;;;;;;2.05;84.91;97020.80;220943;1282;22540;-80
2023/02/25 15:52:56;;;;;;;5.80;3.20;;;;;;;1.97;85.28;97029.27;220998;1282;22542;-81
2023/02/25 15:57:59;;;;;;;4.40;3.10;;;;;;;1.87;85.21;97034.86;220954;1282;25297;-80
2023/02/25 16:03:34;;;;;;;5.10;3.40;;;;;;;1.82;85.44;97046.42;220950;1283;22843;-80
2023/02/25 16:08:45;;;;;;;4.80;3.40;;;;;;;1.77;85.62;97054.98;220938;1278;22493;-80
2023/02/25 16:13:49;;;;;;;5.00;3.70;;;;;;;1.73;85.65;97056.82;221240;1275;23805;-80
2023/02/25 16:18:54;;;;;;;4.90;2.90;;;;;;;1.72;85.72;97064.21;221021;1280;24394;-81
2023/02/25 16:23:59;;;;;;;3.80;2.60;;;;;;;1.72;85.75;97071.47;220875;1276;25348;-79
2023/02/25 16:29:22;;;;;;;3.50;2.50;;;;;;;1.73;85.94;97082.02;220809;1282;22545;-81
2023/02/25 16:35:08;;;;;;;3.70;2.60;;;;;;;1.73;85.79;97088.02;220893;1280;22693;-81
2023/02/25 16:40:44;;;;;;;2.60;2.30;;;;;;;1.72;85.60;97090.05;220882;1279;26430;-80
2023/02/25 16:45:59;;;;;;;3.40;2.50;;;;;;;1.68;85.82;97101.39;220883;1282;24284;-80
2023/02/25 16:51:18;;;;;;;4.10;3.10;;;;;;;1.66;85.79;97117.41;221218;1280;23932;-81
2023/02/25 16:56:24;;;;;;;;;;;;;;;1.63;85.90;97125.55;221028;1279;25308;-80
2023/02/25 17:01:29;;;;;;;4.30;2.70;;;;;;;1.63;86.12;97143.89;220819;1280;23936;-80
2023/02/25 17:06:32;;;;;;;3.40;2.80;;;;;;;1.62;85.85;97151.27;221076;1276;22536;-80
2023/02/25 17:11:34;;;;;;;3.30;2.30;;;;;;;1.61;85.97;97159.14;220855;1280;24313;-79
2023/02/25 17:16:42;;;;;;;3.70;2.60;;;;;;;1.58;85.74;97166.63;220878;1281;23479;-80
2023/02/25 17:21:52;;;;;;;4.00;2.80;;;;;;;1.56;85.47;97166.38;220851;1281;24252;-81
2023/02/25 17:26:56;;;;;;;2.90;2.40;;;;;;;1.51;85.44;97176.22;221051;1279;22550;-81
2023/02/25 17:31:58;;;;;;;2.60;2.20;;;;;;;1.48;85.38;97187.70;220954;1281;22598;-80
2023/02/25 17:37:05;;;;;;;3.30;2.30;;;;;;;1.50;85.26;97193.91;220850;1280;24377;-81
2023/02/25 17:42:38;;;;;;;3.50;2.60;;;;;;;1.52;85.39;97205.68;220915;1279;22515;-81
2023/02/25 17:47:42;;;;;;;3.00;2.30;;;;;;;1.53;85.13;97207.64;221150;1271;22644;-80
2023/02/25 17:52:50;;;;;;;4.10;3.10;;;;;;;1.53;84.85;97210.73;220830;1281;22557;-81
2023/02/25 17:57:57;;;;;;;4.80;2.90;;;;;;;1.51;84.79;97210.38;221028;1274;22543;-81
2023/02/25 18:03:29;;;;;;;5.50;3.40;;;;;;;1.50;84.78;97226.44;220844;1282;22556;-81
2023/02/25 18:08:51;;;;;;;4.20;2.90;;;;;;;1.52;85.03;97235.29;220741;1282;22552;-80
2023/02/25 18:13:54;;;;;;;3.70;2.80;;;;;;;1.56;85.08;97241.46;221206;1282;22546;-81
2023/02/25 18:18:58;;;;;;;4.80;3.30;;;;;;;1.59;85.03;97249.13;220991;1275;25254;-81
2023/02/25 18:24:08;;;;;;;4.20;3.40;;;;;;;1.60;84.79;97255.92;221101;1274;22595;-80
2023/02/25 18:29:11;;;;;;;4.40;3.40;;;;;;;1.61;84.53;97258.59;221186;1282;24248;-79
2023/02/25 18:34:22;;;;;;;7.40;4.20;;;;;;;1.61;84.71;97267.61;221457;1279;22563;-80
2023/02/25 18:39:28;;;;;;;5.30;3.80;;;;;;;1.59;84.77;97273.85;221692;1279;22553;-81
2023/02/25 18:44:30;;;;;;;4.60;3.00;;;;;;;1.59;84.51;97279.25;221719;1283;22584;-80
2023/02/25 18:49:32;;;;;;;4.60;3.60;;;;;;;1.60;84.45;97285.30;221655;1282;22549;-80
2023/02/25 18:54:37;;;;;;;4.90;3.90;;;;;;;1.62;84.46;97295.81;222318;1282;22536;-81
2023/02/25 18:59:40;;;;;;;5.00;3.70;;;;;;;1.63;84.32;97300.08;222694;1282;22691;-80
2023/02/25 19:04:45;;;;;;;4.60;4.20;;;;;;;1.64;84.36;97304.89;223052;1275;22794;-79
2023/02/25 19:09:53;;;;;;;5.50;3.60;;;;;;;1.66;84.39;97319.27;223615;1283;22652;-79
2023/02/25 19:15:06;;;;;;;5.20;4.00;;;;;;;1.66;84.18;97327.04;223810;1282;22600;-79
2023/02/25 19:20:20;;;;;;;5.90;4.30;;;;;;;1.66;84.25;97332.28;223852;1281;22568;-80
2023/02/25 19:25:28;;;;;;;7.10;5.10;;;;;;;1.65;84.03;97341.88;224047;1283;22497;-78
2023/02/25 19:30:36;;;;;;;4.80;4.00;;;;;;;1.65;84.24;97349.79;224322;1273;22630;-79
2023/02/25 19:35:42;;;;;;;6.30;4.50;;;;;;;1.62;84.64;97354.30;224366;1282;22656;-80
2023/02/25 19:40:47;;;;;;;6.10;4.60;;;;;;;1.59;84.50;97360.36;224415;1278;22855;-80
2023/02/25 19:45:52;;;;;;;6.10;4.70;;;;;;;1.53;84.43;97362.21;223146;1283;23308;-80
2023/02/25 19:50:55;;;;;;;6.40;4.80;;;;;;;1.45;84.76;97363.78;222634;1275;25447;-81
2023/02/25 19:55:59;;;;;;;5.50;4.90;;;;;;;1.39;85.11;97373.70;222858;1277;23359;-80
2023/02/25 20:01:07;;;;;;;6.80;5.40;;;;;;;1.33;85.12;97372.02;222549;1283;24267;-78
2023/02/25 20:06:15;;;;;;;7.80;5.60;;;;;;;1.24;85.49;97374.89;222340;1280;22512;-79
2023/02/25 20:11:19;;;;;;;8.40;6.70;;;;;;;1.18;85.40;97379.02;221763;1282;22554;-80
2023/02/25 20:16:42;;;;;;;8.80;7.30;;;;;;;1.13;85.48;97382.51;221796;1279;22494;-80
2023/02/25 20:21:45;;;;;;;8.90;7.50;;;;;;;1.07;85.79;97391.23;222137;1282;22613;-79
2023/02/25 20:26:48;;;;;;;10.90;8.00;;;;;;;0.99;85.85;97392.39;221902;1282;22883;-80
2023/02/25 20:31:54;;;;;;;11.10;8.70;;;;;;;0.93;86.37;97397.12;221609;1282;22539;-80
2023/02/25 20:37:18;;;;;;;10.00;8.10;;;;;;;0.90;86.53;97405.05;221550;1277;22584;-79
2023/02/25 20:42:28;;;;;;;11.10;8.50;;;;;;;0.86;86.71;97415.30;221561;1275;25397;-79
2023/02/25 20:47:36;;;;;;;13.90;10.70;;;;;;;0.83;86.76;97424.35;221191;1282;26140;-80
2023/02/25 20:52:41;;;;;;;15.70;12.10;;;;;;;0.81;86.72;97428.39;220876;1282;22638;-81
2023/02/25 20:57:43;;;;;;;14.40;11.00;;;;;;;0.80;87.19;97435.61;221473;1275;22539;-81
2023/02/25 21:02:46;;;;;;;15.40;10.90;;;;;;;0.77;87.16;97437.09;221294;1279;25237;-79
2023/02/25 21:07:48;;;;;;;13.30;10.00;;;;;;;0.74;87.29;97435.02;221269;1282;22557;-80
2023/02/25 21:12:58;;;;;;;14.60;10.40;;;;;;;0.71;87.24;97439.11;221053;1283;22566;-80
2023/02/25 21:18:02;;;;;;;13.80;10.40;;;;;;;0.68;87.17;97443.39;221019;1278;25370;-80
2023/02/25 21:23:06;;;;;;;12.50;9.00;;;;;;;0.64;87.56;97446.39;221352;1275;22539;-83
2023/02/25 21:28:08;;;;;;;10.90;8.40;;;;;;;0.63;87.30;97456.23;221298;1280;22601;-81
2023/02/25 21:33:15;;;;;;;11.40;8.30;;;;;;;0.61;87.56;97457.23;221193;1283;25226;-81
2023/02/25 21:38:18;;;;;;;9.70;7.80;;;;;;;0.61;87.99;97460.34;221241;1275;24261;-83
2023/02/25 21:43:23;;;;;;;10.50;7.80;;;;;;;0.61;87.59;97464.77;221139;1280;22546;-81
2023/02/25 21:48:27;;;;;;;12.00;8.20;;;;;;;0.59;87.80;97460.77;220961;1281;22542;-80
2023/02/25 21:53:32;;;;;;;11.00;8.00;;;;;;;0.57;87.74;97469.33;221088;1279;24166;-80
2023/02/25 21:58:35;;;;;;;10.70;8.50;;;;;;;0.55;87.95;97474.58;220867;1280;23635;-81
2023/02/25 22:03:38;;;;;;;11.50;8.50;;;;;;;0.53;88.23;97477.86;221011;1279;22580;-80
2023/02/25 22:08:44;;;;;;;10.70;8.30;;;;;;;0.47;88.02;97477.74;220915;1282;23116;-81
2023/02/25 22:13:53;;;;;;;10.80;8.20;;;;;;;0.44;88.33;97481.10;220829;1282;22554;-81
2023/02/25 22:18:57;;;;;;;7.10;6.30;;;;;;;0.43;88.72;97491.52;220928;1282;22557;-81
2023/02/25 22:24:01;;;;;;;6.70;4.80;;;;;;;0.42;88.12;97502.77;220980;1280;25445;-79
2023/02/25 22:29:07;;;;;;;7.60;5.40;;;;;;;0.38;88.42;97502.63;220866;1282;22556;-80
2023/02/25 22:34:14;;;;;;;;;;;;;;;0.35;88.82;97506.83;221037;1283;25549;-80
2023/02/25 22:39:26;;;;;;;7.30;5.70;;;;;;;0.38;88.57;97519.77;221032;1282;22547;-82
2023/02/25 22:44:29;;;;;;;8.70;6.90;;;;;;;0.41;88.38;97530.20;220892;1282;25254;-80
2023/02/25 22:49:32;;;;;;;8.20;6.70;;;;;;;0.43;88.44;97539.02;220989;1283;22551;-80
2023/02/25 22:54:35;;;;;;;5.90;5.20;;;;;;;0.42;88.47;97549.31;221008;1280;22550;-80
2023/02/25 22:59:38;;;;;;;8.30;5.90;;;;;;;0.41;88.36;97547.16;221050;1279;25980;-79
2023/02/25 23:04:40;;;;;;;7.30;5.20;;;;;;;0.41;88.44;97560.73;220887;1281;22624;-80
2023/02/25 23:09:46;;;;;;;6.60;5.70;;;;;;;0.40;88.01;97573.08;221076;1283;22536;-80
2023/02/25 23:14:49;;;;;;;6.70;5.70;;;;;;;0.40;87.90;97584.14;220857;1283;176227;-80
2023/02/25 23:19:58;;;;;;;7.60;6.00;;;;;;;0.42;87.89;97590.04;221127;1280;25338;-81
2023/02/25 23:25:02;;;;;;;7.90;6.50;;;;;;;0.42;88.23;97592.41;220798;1265;24117;-80
2023/02/25 23:30:05;;;;;;;6.50;5.50;;;;;;;0.43;87.91;97594.65;220968;1280;22562;-80
2023/02/25 23:35:10;;;;;;;6.20;5.60;;;;;;;0.43;88.11;97600.66;220974;1259;22551;-80
2023/02/25 23:40:14;;;;;;;7.30;6.00;;;;;;;0.43;88.01;97613.98;220957;1279;24212;-80
2023/02/25 23:45:16;;;;;;;6.90;5.60;;;;;;;0.41;87.97;97617.99;221041;1282;22726;-80
2023/02/25 23:50:18;;;;;;;8.50;5.60;;;;;;;0.41;87.68;97623.41;220991;1278;22665;-81
2023/02/25 23:55:21;;;;;;;7.30;5.00;;;;;;;0.40;88.08;97637.83;220974;1275;22558;-78
